| time (UTC) | temp F | wind direction | speed MPH | gust MPH | rain 1hr in | rain 24hr in | rain mn in | humidity % | barometer mb |
| 20260510104829 | 55 | 57 | 1.0 | 4.0 | 0.00 | 0.00 | 0.00 | 80 | 1014.7 |
| 20260510104150 | 55 | 59 | 2.0 | 4.0 | 0.00 | 0.00 | 0.00 | 80 | 1014.4 |
| 20260510103720 | 55 | 56 | 2.0 | 3.0 | 0.00 | 0.00 | 0.00 | 81 | 1014.4 |
| 20260510102830 | 55 | 59 | 2.0 | 3.0 | 0.00 | 0.00 | 0.00 | 80 | 1014.0 |
| 20260510102150 | 55 | 60 | 2.0 | 3.0 | 0.00 | 0.00 | 0.00 | 80 | 1014.4 |
| 20260510101510 | 55 | 56 | 2.0 | 3.0 | 0.00 | 0.00 | 0.00 | 80 | 1014.0 |
| 20260510100830 | 55 | 84 | 2.0 | 2.0 | 0.00 | 0.00 | 0.00 | 79 | 1014.0 |
| 20260510100150 | 55 | 4 | 1.0 | 2.0 | 0.00 | 0.00 | 0.00 | 80 | 1013.7 |
| 20260510095719 | 55 | 37 | 1.0 | 3.0 | 0.00 | 0.00 | 0.00 | 80 | 1013.7 |
| 20260510095040 | 55 | 46 | 2.0 | 3.0 | 0.00 | 0.00 | 0.00 | 80 | 1013.7 |
| 20260510094150 | 55 | 43 | 2.0 | 3.0 | 0.00 | 0.00 | 0.00 | 79 | 1013.3 |
| 20260510093510 | 55 | 55 | 2.0 | 3.0 | 0.00 | 0.00 | 0.00 | 79 | 1013.3 |
| 20260510093042 | 55 | 64 | 2.0 | 3.0 | 0.00 | 0.00 | 0.00 | 79 | 1013.3 |
| 20260510092403 | 55 | 47 | 2.0 | 3.0 | 0.00 | 0.00 | 0.00 | 79 | 1013.3 |
| 20260510091510 | 56 | 63 | 2.0 | 3.0 | 0.00 | 0.00 | 0.00 | 77 | 1013.7 |
| 20260510091044 | 57 | 42 | 1.0 | 2.0 | 0.00 | 0.00 | 0.00 | 75 | 1013.7 |
| 20260510090359 | 56 | 34 | 2.0 | 2.0 | 0.00 | 0.00 | 0.00 | 75 | 1013.7 |
| 20260510085510 | 56 | 61 | 1.0 | 3.0 | 0.00 | 0.00 | 0.00 | 75 | 1013.7 |
| 20260510084830 | 56 | 41 | 2.0 | 4.0 | 0.00 | 0.00 | 0.00 | 77 | 1013.7 |
| 20260510084150 | 55 | 70 | 2.0 | 5.0 | 0.00 | 0.00 | 0.00 | 79 | 1013.7 |
| 20260510083510 | 55 | 48 | 3.0 | 8.0 | 0.00 | 0.00 | 0.00 | 79 | 1013.7 |
| 20260510082830 | 54 | 44 | 4.0 | 8.0 | 0.00 | 0.00 | 0.00 | 80 | 1013.7 |
| 20260510082150 | 54 | 49 | 5.0 | 8.0 | 0.00 | 0.00 | 0.00 | 81 | 1013.3 |
| 20260510081510 | 54 | 53 | 5.0 | 8.0 | 0.00 | 0.00 | 0.00 | 80 | 1013.3 |
| 20260510080830 | 54 | 49 | 4.0 | 6.0 | 0.00 | 0.00 | 0.00 | 81 | 1013.3 |
| 20260510080150 | 54 | 51 | 4.0 | 6.0 | 0.00 | 0.00 | 0.00 | 80 | 1013.0 |
| 20260510075510 | 54 | 52 | 4.0 | 7.0 | 0.00 | 0.00 | 0.00 | 80 | 1013.0 |
| 20260510074830 | 54 | 52 | 5.0 | 7.0 | 0.00 | 0.00 | 0.00 | 79 | 1012.6 |
| 20260510074150 | 55 | 54 | 6.0 | 7.0 | 0.00 | 0.00 | 0.00 | 79 | 1012.6 |
| 20260510073723 | 54 | 45 | 3.0 | 6.0 | 0.00 | 0.00 | 0.00 | 79 | 1012.6 |
| 20260510072830 | 55 | 60 | 3.0 | 6.0 | 0.00 | 0.00 | 0.00 | 78 | 1012.6 |
| 20260510072617 | 55 | 54 | 4.0 | 5.0 | 0.00 | 0.00 | 0.00 | 78 | 1012.6 |
| 20260510071933 | 56 | 57 | 2.0 | 4.0 | 0.00 | 0.00 | 0.00 | 77 | 1013.0 |
| 20260510070830 | 55 | 57 | 3.0 | 5.0 | 0.00 | 0.00 | 0.00 | 78 | 1012.6 |
| 20260510070150 | 56 | 60 | 3.0 | 5.0 | 0.00 | 0.00 | 0.00 | 77 | 1012.6 |
| 20260510065510 | 56 | 60 | 3.0 | 5.0 | 0.00 | 0.00 | 0.00 | 77 | 1012.6 |
| 20260510064830 | 56 | 63 | 3.0 | 4.0 | 0.00 | 0.00 | 0.00 | 76 | 1012.6 |
| 20260510064403 | 56 | 64 | 3.0 | 5.0 | 0.00 | 0.00 | 0.00 | 76 | 1013.0 |
| 20260510063510 | 56 | 62 | 3.0 | 6.0 | 0.00 | 0.00 | 0.00 | 75 | 1013.0 |
| 20260510063257 | 57 | 65 | 4.0 | 6.0 | 0.00 | 0.00 | 0.00 | 74 | 1013.0 |
| 20260510062150 | 56 | 45 | 3.0 | 5.0 | 0.00 | 0.00 | 0.00 | 76 | 1013.0 |
| 20260510061720 | 57 | 60 | 3.0 | 4.0 | 0.00 | 0.00 | 0.00 | 74 | 1013.0 |
| 20260510060830 | 57 | 52 | 3.0 | 4.0 | 0.00 | 0.00 | 0.00 | 73 | 1013.0 |
| 20260510060150 | 58 | 51 | 3.0 | 4.0 | 0.00 | 0.00 | 0.00 | 72 | 1013.0 |
| 20260510055935 | 58 | 47 | 3.0 | 4.0 | 0.00 | 0.00 | 0.00 | 72 | 1013.0 |
| 20260510054830 | 58 | 49 | 3.0 | 4.0 | 0.00 | 0.00 | 0.00 | 70 | 1013.0 |
| 20260510054616 | 59 | 48 | 2.0 | 3.0 | 0.00 | 0.00 | 0.00 | 68 | 1013.0 |
| 20260510053510 | 60 | 291 | 1.0 | 3.0 | 0.00 | 0.00 | 0.00 | 64 | 1013.0 |
| 20260510052830 | 62 | 67 | 1.0 | 5.0 | 0.00 | 0.00 | 0.00 | 62 | 1013.0 |
| 20260510052613 | 63 | 319 | 2.0 | 6.0 | 0.00 | 0.00 | 0.00 | 57 | 1013.0 |
| 20260510051721 | 60 | 290 | 3.0 | 6.0 | 0.00 | 0.00 | 0.00 | 63 | 1013.0 |
| 20260510050830 | 59 | 165 | 1.0 | 4.0 | 0.00 | 0.00 | 0.00 | 68 | 1013.0 |
| 20260510050150 | 57 | 39 | 2.0 | 5.0 | 0.00 | 0.00 | 0.00 | 73 | 1012.6 |
| 20260510045510 | 57 | 53 | 3.0 | 5.0 | 0.00 | 0.00 | 0.00 | 75 | 1012.6 |
| 20260510044830 | 57 | 50 | 3.0 | 5.0 | 0.00 | 0.00 | 0.00 | 75 | 1012.6 |
| 20260510044404 | 57 | 58 | 3.0 | 6.0 | 0.00 | 0.00 | 0.00 | 76 | 1012.6 |
| 20260510043510 | 57 | 51 | 3.0 | 6.0 | 0.00 | 0.00 | 0.00 | 76 | 1012.3 |
| 20260510042830 | 57 | 50 | 4.0 | 5.0 | 0.00 | 0.00 | 0.00 | 75 | 1012.3 |
| 20260510042150 | 57 | 52 | 3.0 | 6.0 | 0.00 | 0.00 | 0.00 | 75 | 1012.6 |
| 20260510041510 | 57 | 53 | 4.0 | 6.0 | 0.00 | 0.00 | 0.00 | 76 | 1012.3 |
| 20260510040830 | 57 | 50 | 3.0 | 5.0 | 0.00 | 0.00 | 0.00 | 76 | 1012.3 |
| 20260510040150 | 58 | 55 | 3.0 | 5.0 | 0.00 | 0.00 | 0.00 | 76 | 1012.3 |
| 20260510035724 | 58 | 52 | 3.0 | 5.0 | 0.00 | 0.00 | 0.00 | 76 | 1012.6 |
| 20260510034830 | 58 | 55 | 4.0 | 5.0 | 0.00 | 0.00 | 0.00 | 76 | 1012.6 |
| 20260510034400 | 58 | 55 | 4.0 | 5.0 | 0.00 | 0.00 | 0.00 | 76 | 1012.6 |
| 20260510033510 | 58 | 55 | 4.0 | 5.0 | 0.00 | 0.00 | 0.00 | 75 | 1012.3 |
| 20260510032830 | 59 | 62 | 3.0 | 4.0 | 0.00 | 0.00 | 0.00 | 74 | 1012.3 |
| 20260510032402 | 59 | 47 | 1.0 | 3.0 | 0.00 | 0.00 | 0.00 | 72 | 1012.3 |
| 20260510031510 | 60 | 56 | 2.0 | 4.0 | 0.00 | 0.00 | 0.00 | 70 | 1012.3 |
| 20260510031043 | 60 | 51 | 3.0 | 4.0 | 0.00 | 0.00 | 0.00 | 72 | 1011.9 |
| 20260510030150 | 61 | 58 | 3.0 | 5.0 | 0.00 | 0.00 | 0.00 | 70 | 1011.9 |
| 20260510025719 | 60 | 52 | 3.0 | 5.0 | 0.00 | 0.00 | 0.00 | 71 | 1011.9 |
| 20260510025040 | 61 | 53 | 3.0 | 4.0 | 0.00 | 0.00 | 0.00 | 70 | 1011.6 |
| 20260510024400 | 61 | 67 | 3.0 | 4.0 | 0.00 | 0.00 | 0.00 | 69 | 1011.6 |
| 20260510023721 | 62 | 59 | 2.0 | 3.0 | 0.00 | 0.00 | 0.00 | 68 | 1011.6 |
| 20260510022830 | 62 | 49 | 2.0 | 3.0 | 0.00 | 0.00 | 0.00 | 66 | 1011.2 |
| 20260510022150 | 62 | 65 | 2.0 | 5.0 | 0.00 | 0.00 | 0.00 | 66 | 1011.2 |
| 20260510021510 | 63 | 57 | 3.0 | 5.0 | 0.00 | 0.00 | 0.00 | 66 | 1011.2 |
| 20260510021044 | 64 | 52 | 4.0 | 5.0 | 0.00 | 0.00 | 0.00 | 65 | 1010.9 |
| 20260510020150 | 64 | 57 | 3.0 | 4.0 | 0.00 | 0.00 | 0.00 | 62 | 1010.9 |
| 20260510015510 | 65 | 63 | 3.0 | 5.0 | 0.00 | 0.00 | 0.00 | 61 | 1010.9 |
| 20260510014830 | 66 | 56 | 2.0 | 4.0 | 0.00 | 0.00 | 0.00 | 59 | 1010.9 |
| 20260510014150 | 67 | 49 | 2.0 | 3.0 | 0.00 | 0.00 | 0.00 | 56 | 1010.9 |
| 20260510013510 | 68 | 53 | 1.0 | 3.0 | 0.00 | 0.00 | 0.00 | 55 | 1010.5 |
| 20260510012830 | 69 | 49 | 1.0 | 3.0 | 0.00 | 0.00 | 0.00 | 53 | 1010.5 |
| 20260510012150 | 71 | 65 | 1.0 | 2.0 | 0.00 | 0.00 | 0.00 | 48 | 1010.5 |
| 20260510011510 | 74 | 359 | 1.0 | 2.0 | 0.00 | 0.00 | 0.00 | 43 | 1010.5 |
| 20260510011039 | 75 | 260 | 1.0 | 3.0 | 0.00 | 0.00 | 0.00 | 38 | 1010.5 |
| 20260510010400 | 75 | 245 | 2.0 | 3.0 | 0.00 | 0.00 | 0.00 | 37 | 1010.5 |
| 20260510005510 | 76 | 248 | 1.0 | 6.0 | 0.00 | 0.00 | 0.00 | 36 | 1010.5 |
| 20260510004830 | 77 | 245 | 3.0 | 6.0 | 0.00 | 0.00 | 0.00 | 35 | 1010.5 |
| 20260510004402 | 78 | 255 | 1.0 | 6.0 | 0.00 | 0.00 | 0.00 | 33 | 1010.5 |
| 20260510003510 | 78 | 254 | 2.0 | 6.0 | 0.00 | 0.00 | 0.00 | 33 | 1010.5 |
| 20260510003043 | 79 | 247 | 3.0 | 8.0 | 0.00 | 0.00 | 0.00 | 32 | 1010.2 |
| 20260510002150 | 79 | 249 | 2.0 | 6.0 | 0.00 | 0.00 | 0.00 | 32 | 1010.2 |
| 20260510001510 | 80 | 230 | 4.0 | 6.0 | 0.00 | 0.00 | 0.00 | 30 | 1010.2 |
| 20260510001040 | 81 | 242 | 3.0 | 5.0 | 0.00 | 0.00 | 0.00 | 29 | 1010.2 |
| 20260510000150 | 81 | 259 | 2.0 | 7.0 | 0.00 | 0.00 | 0.00 | 30 | 1010.2 |
| 20260509235510 | 81 | 242 | 5.0 | 7.0 | 0.00 | 0.00 | 0.00 | 29 | 1010.2 |
| 20260509234830 | 82 | 261 | 2.0 | 6.0 | 0.00 | 0.00 | 0.00 | 28 | 1010.2 |
| 20260509234150 | 82 | 261 | 4.0 | 6.0 | 0.00 | 0.00 | 0.00 | 28 | 1010.2 |
| 20260509233510 | 82 | 246 | 2.0 | 7.0 | 0.00 | 0.00 | 0.00 | 27 | 1010.2 |
| 20260509232830 | 82 | 274 | 2.0 | 8.0 | 0.00 | 0.00 | 0.00 | 28 | 1010.2 |
| 20260509232150 | 82 | 281 | 4.0 | 8.0 | 0.00 | 0.00 | 0.00 | 26 | 1010.2 |
| 20260509231510 | 82 | 283 | 3.0 | 9.0 | 0.00 | 0.00 | 0.00 | 26 | 1010.2 |
| 20260509230830 | 82 | 221 | 1.0 | 6.0 | 0.00 | 0.00 | 0.00 | 24 | 1010.2 |
| 20260509230150 | 82 | 143 | 2.0 | 6.0 | 0.00 | 0.00 | 0.00 | 24 | 1010.2 |
| 20260509225935 | 82 | 181 | 3.0 | 8.0 | 0.00 | 0.00 | 0.00 | 24 | 1010.2 |
| 20260509224830 | 82 | 176 | 4.0 | 8.0 | 0.00 | 0.00 | 0.00 | 24 | 1010.2 |
| 20260509224150 | 82 | 135 | 3.0 | 10.0 | 0.00 | 0.00 | 0.00 | 24 | 1009.8 |
| 20260509223510 | 82 | 149 | 6.0 | 10.0 | 0.00 | 0.00 | 0.00 | 23 | 1009.8 |
| 20260509222830 | 83 | 171 | 5.0 | 9.0 | 0.00 | 0.00 | 0.00 | 24 | 1009.8 |
| 20260509222613 | 83 | 103 | 3.0 | 7.0 | 0.00 | 0.00 | 0.00 | 23 | 1009.8 |
| 20260509221510 | 84 | 75 | 1.0 | 6.0 | 0.00 | 0.00 | 0.00 | 21 | 1009.8 |
| 20260509221041 | 83 | 347 | 3.0 | 6.0 | 0.00 | 0.00 | 0.00 | 22 | 1009.8 |
| 20260509220150 | 82 | 168 | 1.0 | 7.0 | 0.00 | 0.00 | 0.00 | 24 | 1009.8 |
| 20260509215723 | 82 | 276 | 3.0 | 7.0 | 0.00 | 0.00 | 0.00 | 23 | 1009.8 |
| 20260509214830 | 82 | 291 | 2.0 | 6.0 | 0.00 | 0.00 | 0.00 | 23 | 1009.8 |
| 20260509214150 | 82 | 262 | 4.0 | 9.0 | 0.00 | 0.00 | 0.00 | 25 | 1009.8 |
| 20260509213933 | 82 | 299 | 4.0 | 7.0 | 0.00 | 0.00 | 0.00 | 23 | 1009.8 |
| 20260509212830 | 83 | 222 | 2.0 | 9.0 | 0.00 | 0.00 | 0.00 | 22 | 1009.8 |
| 20260509212150 | 85 | 231 | 1.0 | 5.0 | 0.00 | 0.00 | 0.00 | 21 | 1009.8 |
| 20260509211721 | 84 | 290 | 3.0 | 5.0 | 0.00 | 0.00 | 0.00 | 22 | 1009.8 |
| 20260509210830 | 83 | 56 | 1.0 | 7.0 | 0.00 | 0.00 | 0.00 | 22 | 1009.8 |
| 20260509210150 | 82 | 7 | 3.0 | 7.0 | 0.00 | 0.00 | 0.00 | 23 | 1010.2 |
| 20260509205510 | 82 | 29 | 4.0 | 7.0 | 0.00 | 0.00 | 0.00 | 24 | 1010.2 |
| 20260509204830 | 82 | 4 | 2.0 | 5.0 | 0.00 | 0.00 | 0.00 | 23 | 1010.2 |
| 20260509204150 | 83 | 4 | 1.0 | 5.0 | 0.00 | 0.00 | 0.00 | 24 | 1010.5 |
| 20260509203510 | 83 | 286 | 3.0 | 5.0 | 0.00 | 0.00 | 0.00 | 23 | 1010.5 |
| 20260509202830 | 82 | 201 | 1.0 | 6.0 | 0.00 | 0.00 | 0.00 | 23 | 1010.5 |
| 20260509202150 | 83 | 232 | 2.0 | 8.0 | 0.00 | 0.00 | 0.00 | 22 | 1010.5 |
| 20260509201510 | 84 | 275 | 4.0 | 8.0 | 0.00 | 0.00 | 0.00 | 22 | 1010.5 |
| 20260509200830 | 83 | 254 | 2.0 | 4.0 | 0.00 | 0.00 | 0.00 | 22 | 1010.5 |
| 20260509200403 | 82 | 277 | 1.0 | 9.0 | 0.00 | 0.00 | 0.00 | 22 | 1010.9 |
| 20260509195510 | 82 | 304 | 4.0 | 12.0 | 0.00 | 0.00 | 0.00 | 23 | 1010.9 |
| 20260509194830 | 83 | 326 | 5.0 | 12.0 | 0.00 | 0.00 | 0.00 | 22 | 1010.9 |
| 20260509194150 | 84 | 279 | 2.0 | 10.0 | 0.00 | 0.00 | 0.00 | 22 | 1010.9 |
| 20260509193510 | 83 | 4 | 2.0 | 5.0 | 0.00 | 0.00 | 0.00 | 22 | 1010.9 |
| 20260509192830 | 81 | 105 | 2.0 | 7.0 | 0.00 | 0.00 | 0.00 | 22 | 1010.9 |
| 20260509192150 | 81 | 60 | 3.0 | 12.0 | 0.00 | 0.00 | 0.00 | 22 | 1010.9 |
| 20260509191510 | 82 | 306 | 7.0 | 17.0 | 0.00 | 0.00 | 0.00 | 24 | 1010.9 |
| 20260509190830 | 82 | 275 | 9.0 | 17.0 | 0.00 | 0.00 | 0.00 | 25 | 1010.9 |
| 20260509190150 | 83 | 291 | 3.0 | 6.0 | 0.00 | 0.00 | 0.00 | 22 | 1011.2 |
| 20260509185933 | 82 | 204 | 2.0 | 9.0 | 0.00 | 0.00 | 0.00 | 22 | 1011.2 |
| 20260509185040 | 81 | 314 | 7.0 | 13.0 | 0.00 | 0.00 | 0.00 | 23 | 1011.2 |
| 20260509184150 | 82 | 313 | 5.0 | 10.0 | 0.00 | 0.00 | 0.00 | 25 | 1010.9 |
| 20260509183510 | 81 | 323 | 3.0 | 12.0 | 0.00 | 0.00 | 0.00 | 23 | 1010.9 |
| 20260509183042 | 81 | 287 | 4.0 | 12.0 | 0.00 | 0.00 | 0.00 | 24 | 1010.9 |
| 20260509182403 | 80 | 259 | 4.0 | 15.0 | 0.00 | 0.00 | 0.00 | 23 | 1010.9 |
| 20260509181510 | 80 | 312 | 8.0 | 14.0 | 0.00 | 0.00 | 0.00 | 23 | 1010.9 |
| 20260509180830 | 81 | 318 | 6.0 | 10.0 | 0.00 | 0.00 | 0.00 | 22 | 1011.2 |
| 20260509180400 | 82 | 333 | 3.0 | 12.0 | 0.00 | 0.00 | 0.00 | 22 | 1011.2 |
| 20260509175511 | 80 | 280 | 4.0 | 13.0 | 0.00 | 0.00 | 0.00 | 22 | 1010.9 |
| 20260509175041 | 80 | 63 | 3.0 | 13.0 | 0.00 | 0.00 | 0.00 | 22 | 1010.9 |
| 20260509174150 | 79 | 322 | 7.0 | 13.0 | 0.00 | 0.00 | 0.00 | 24 | 1011.2 |
| 20260509173510 | 80 | 314 | 5.0 | 13.0 | 0.00 | 0.00 | 0.00 | 25 | 1011.2 |
| 20260509172830 | 79 | 321 | 8.0 | 11.0 | 0.00 | 0.00 | 0.00 | 23 | 1011.2 |
| 20260509172150 | 80 | 263 | 4.0 | 10.0 | 0.00 | 0.00 | 0.00 | 25 | 1011.2 |
| 20260509171510 | 80 | 315 | 2.0 | 8.0 | 0.00 | 0.00 | 0.00 | 27 | 1011.2 |
| 20260509170830 | 79 | 309 | 4.0 | 9.0 | 0.00 | 0.00 | 0.00 | 26 | 1011.2 |
| 20260509170150 | 79 | 306 | 4.0 | 9.0 | 0.00 | 0.00 | 0.00 | 28 | 1011.2 |
| 20260509165934 | 78 | 301 | 4.0 | 12.0 | 0.00 | 0.00 | 0.00 | 27 | 1011.2 |
| 20260509165042 | 78 | 289 | 5.0 | 11.0 | 0.00 | 0.00 | 0.00 | 30 | 1011.2 |
| 20260509164402 | 77 | 323 | 4.0 | 10.0 | 0.00 | 0.00 | 0.00 | 33 | 1011.2 |
| 20260509163723 | 77 | 275 | 4.0 | 9.0 | 0.00 | 0.00 | 0.00 | 32 | 1011.6 |
| 20260509162830 | 77 | 291 | 5.0 | 10.0 | 0.00 | 0.00 | 0.00 | 34 | 1011.6 |
| 20260509162150 | 76 | 291 | 6.0 | 10.0 | 0.00 | 0.00 | 0.00 | 36 | 1011.2 |
| 20260509161720 | 76 | 321 | 4.0 | 8.0 | 0.00 | 0.00 | 0.00 | 38 | 1011.6 |
| 20260509161040 | 75 | 330 | 5.0 | 8.0 | 0.00 | 0.00 | 0.00 | 39 | 1011.2 |
| 20260509160150 | 75 | 330 | 4.0 | 8.0 | 0.00 | 0.00 | 0.00 | 39 | 1011.6 |
| 20260509155510 | 74 | 322 | 4.0 | 11.0 | 0.00 | 0.00 | 0.00 | 40 | 1011.6 |
| 20260509154830 | 74 | 314 | 7.0 | 11.0 | 0.00 | 0.00 | 0.00 | 35 | 1011.2 |
| 20260509154150 | 74 | 319 | 7.0 | 11.0 | 0.00 | 0.00 | 0.00 | 39 | 1011.2 |
| 20260509153510 | 73 | 294 | 7.0 | 10.0 | 0.00 | 0.00 | 0.00 | 41 | 1011.2 |
| 20260509153039 | 73 | 308 | 7.0 | 10.0 | 0.00 | 0.00 | 0.00 | 43 | 1011.2 |
| 20260509152400 | 72 | 321 | 5.0 | 10.0 | 0.00 | 0.00 | 0.00 | 42 | 1011.2 |
| 20260509151510 | 73 | 321 | 6.0 | 8.0 | 0.00 | 0.00 | 0.00 | 43 | 1011.2 |
| 20260509151254 | 72 | 315 | 3.0 | 8.0 | 0.00 | 0.00 | 0.00 | 47 | 1011.2 |
| 20260509150150 | 71 | 0 | 5.0 | 9.0 | 0.00 | 0.00 | 0.00 | 44 | 1011.2 |
| 20260509145510 | 70 | 330 | 4.0 | 11.0 | 0.00 | 0.00 | 0.00 | 49 | 1011.2 |
| 20260509144830 | 69 | 324 | 8.0 | 11.0 | 0.00 | 0.00 | 0.00 | 47 | 1011.2 |
| 20260509144150 | 69 | 326 | 4.0 | 10.0 | 0.00 | 0.00 | 0.00 | 48 | 1011.2 |
| 20260509143510 | 69 | 331 | 6.0 | 12.0 | 0.00 | 0.00 | 0.00 | 49 | 1011.2 |
| 20260509142830 | 68 | 326 | 6.0 | 9.0 | 0.00 | 0.00 | 0.00 | 51 | 1011.2 |
| 20260509142150 | 67 | 335 | 3.0 | 10.0 | 0.00 | 0.00 | 0.00 | 54 | 1010.9 |
| 20260509141721 | 67 | 318 | 6.0 | 10.0 | 0.00 | 0.00 | 0.00 | 54 | 1010.9 |
| 20260509140830 | 66 | 313 | 5.0 | 9.0 | 0.00 | 0.00 | 0.00 | 56 | 1010.9 |
| 20260509140402 | 66 | 314 | 4.0 | 8.0 | 0.00 | 0.00 | 0.00 | 60 | 1010.5 |
| 20260509135510 | 65 | 330 | 3.0 | 10.0 | 0.00 | 0.00 | 0.00 | 60 | 1010.5 |
| 20260509134830 | 64 | 332 | 5.0 | 10.0 | 0.00 | 0.00 | 0.00 | 62 | 1010.5 |
| 20260509134150 | 64 | 337 | 4.0 | 11.0 | 0.00 | 0.00 | 0.00 | 63 | 1010.5 |
| 20260509133510 | 64 | 323 | 4.0 | 11.0 | 0.00 | 0.00 | 0.00 | 64 | 1010.5 |
| 20260509132830 | 63 | 315 | 6.0 | 11.0 | 0.00 | 0.00 | 0.00 | 68 | 1010.5 |
| 20260509132150 | 62 | 335 | 7.0 | 11.0 | 0.00 | 0.00 | 0.00 | 70 | 1010.5 |
| 20260509131510 | 62 | 331 | 4.0 | 12.0 | 0.00 | 0.00 | 0.00 | 72 | 1010.5 |
| 20260509130830 | 61 | 336 | 6.0 | 9.0 | 0.00 | 0.00 | 0.00 | 72 | 1010.2 |
| 20260509130150 | 61 | 334 | 5.0 | 9.0 | 0.00 | 0.00 | 0.00 | 74 | 1010.2 |
| 20260509125724 | 60 | 338 | 5.0 | 8.0 | 0.00 | 0.00 | 0.00 | 74 | 1010.2 |
| 20260509124830 | 60 | 329 | 2.0 | 5.0 | 0.00 | 0.00 | 0.00 | 78 | 1010.2 |
| 20260509124400 | 59 | 322 | 3.0 | 6.0 | 0.00 | 0.00 | 0.00 | 78 | 1010.2 |
| 20260509123510 | 58 | 332 | 3.0 | 6.0 | 0.00 | 0.00 | 0.00 | 80 | 1010.2 |
| 20260509122830 | 58 | 325 | 3.0 | 6.0 | 0.00 | 0.00 | 0.00 | 81 | 1010.2 |
| 20260509122402 | 57 | 316 | 5.0 | 6.0 | 0.00 | 0.00 | 0.00 | 82 | 1010.2 |
| 20260509121510 | 56 | 329 | 2.0 | 5.0 | 0.00 | 0.00 | 0.00 | 84 | 1009.8 |
| 20260509120830 | 54 | 337 | 2.0 | 4.0 | 0.00 | 0.00 | 0.00 | 86 | 1009.8 |
| 20260509120404 | 52 | 89 | 1.0 | 3.0 | 0.00 | 0.00 | 0.00 | 85 | 1009.8 |
| 20260509115510 | 51 | 49 | 1.0 | 2.0 | 0.00 | 0.00 | 0.00 | 84 | 1009.8 |
| 20260509115040 | 50 | 64 | 1.0 | 2.0 | 0.00 | 0.00 | 0.00 | 85 | 1009.5 |
| 20260509114150 | 49 | 52 | 2.0 | 2.0 | 0.00 | 0.00 | 0.00 | 84 | 1009.5 |
| 20260509113510 | 49 | 56 | 1.0 | 2.0 | 0.00 | 0.00 | 0.00 | 84 | 1009.1 |
| 20260509112830 | 49 | 80 | 1.0 | 3.0 | 0.00 | 0.00 | 0.00 | 83 | 1009.1 |
| 20260509112150 | 49 | 32 | 2.0 | 3.0 | 0.00 | 0.00 | 0.00 | 88 | 1009.1 |
| 20260509111510 | 48 | 64 | 2.0 | 2.0 | 0.00 | 0.00 | 0.00 | 83 | 1009.1 |
| 20260509110830 | 48 | 53 | 1.0 | 2.0 | 0.00 | 0.00 | 0.00 | 84 | 1009.1 |
| 20260509110150 | 48 | 89 | 1.0 | 2.0 | 0.00 | 0.00 | 0.00 | 84 | 1009.1 |
| 20260509105720 | 48 | 61 | 1.0 | 3.0 | 0.00 | 0.00 | 0.00 | 84 | 1008.8 |